createdAt,value
2022-12-09T00:01:14.983Z,99441.50
2022-12-09T00:03:43.689Z,99447.63
2022-12-09T00:06:23.407Z,99446.63
2022-12-09T00:08:51.678Z,99445.41
2022-12-09T00:11:20.416Z,99449.84
2022-12-09T00:13:50.100Z,99456.13
2022-12-09T00:16:18.340Z,99453.84
2022-12-09T00:18:46.356Z,99452.00
2022-12-09T00:21:14.997Z,99459.75
2022-12-09T00:23:42.528Z,99447.88
2022-12-09T00:26:10.505Z,99456.53
2022-12-09T00:28:39.077Z,99456.47
2022-12-09T00:31:08.021Z,99452.91
2022-12-09T00:33:36.217Z,99455.25
2022-12-09T00:36:18.088Z,99459.56
2022-12-09T00:38:45.868Z,99465.66
2022-12-09T00:41:14.677Z,99462.25
2022-12-09T00:43:42.812Z,99465.59
2022-12-09T00:46:11.354Z,99472.81
2022-12-09T00:48:39.701Z,99471.50
2022-12-09T00:51:08.844Z,99476.81
2022-12-09T00:53:36.709Z,99479.66
2022-12-09T00:56:04.247Z,99480.06
2022-12-09T00:58:32.062Z,99486.09
2022-12-09T01:00:59.312Z,99485.03
2022-12-09T01:03:27.579Z,99471.38
2022-12-09T01:05:55.984Z,99471.38
2022-12-09T01:08:23.845Z,99484.78
2022-12-09T01:10:51.276Z,99482.81
2022-12-09T01:13:18.788Z,99474.41
2022-12-09T01:15:47.852Z,99484.00
2022-12-09T01:18:15.457Z,99485.69
2022-12-09T01:20:42.824Z,99488.00
2022-12-09T01:23:11.467Z,99482.59
2022-12-09T01:25:39.399Z,99485.09
2022-12-09T01:28:07.319Z,99477.88
2022-12-09T01:30:34.889Z,99473.94
2022-12-09T01:33:02.481Z,99495.25
2022-12-09T01:35:30.014Z,99480.06
2022-12-09T01:37:57.887Z,99483.78
2022-12-09T01:40:25.743Z,99490.16
2022-12-09T01:42:54.812Z,99477.22
2022-12-09T01:45:22.407Z,99488.03
2022-12-09T01:48:11.332Z,99476.81
2022-12-09T01:50:46.899Z,99491.00
2022-12-09T01:53:16.901Z,99484.19
2022-12-09T01:55:45.139Z,99486.53
2022-12-09T01:58:14.875Z,99472.97
2022-12-09T02:00:44.065Z,99484.13
2022-12-09T02:03:12.886Z,99475.78
2022-12-09T02:05:40.642Z,99483.72
2022-12-09T02:08:13.794Z,99476.13
2022-12-09T02:10:52.259Z,99477.56
2022-12-09T02:13:29.988Z,99482.22
2022-12-09T02:15:59.902Z,99481.81
2022-12-09T02:18:38.511Z,99478.47
2022-12-09T02:21:13.004Z,99482.53
2022-12-09T02:23:53.771Z,99481.06
2022-12-09T02:26:41.292Z,99472.25
2022-12-09T02:29:24.888Z,99484.28
2022-12-09T02:32:20.046Z,99478.94
2022-12-09T02:34:55.450Z,99481.94
2022-12-09T02:37:30.321Z,99486.47
2022-12-09T02:40:08.483Z,99492.34
2022-12-09T02:42:40.671Z,99487.59
2022-12-09T02:45:11.070Z,99489.28
2022-12-09T02:47:47.504Z,99477.78
2022-12-09T02:50:20.984Z,99490.03
2022-12-09T02:52:51.575Z,99496.56
2022-12-09T02:55:22.345Z,99496.44
2022-12-09T02:57:57.197Z,99487.00
2022-12-09T03:00:25.310Z,99493.34
2022-12-09T03:02:56.245Z,99493.47
2022-12-09T03:05:36.904Z,99495.91
2022-12-09T03:08:22.385Z,99493.94
2022-12-09T03:10:53.624Z,99495.28
2022-12-09T03:13:45.714Z,99493.09
2022-12-09T03:16:39.273Z,99502.00
2022-12-09T03:19:27.826Z,99502.06
2022-12-09T03:21:59.285Z,99504.47
2022-12-09T03:24:36.369Z,99497.06
2022-12-09T03:27:09.303Z,99499.59
2022-12-09T03:29:41.604Z,99505.00
2022-12-09T03:32:15.382Z,99501.91
2022-12-09T03:34:46.828Z,99506.28
2022-12-09T03:37:18.236Z,99501.22
2022-12-09T03:39:46.981Z,99514.00
2022-12-09T03:42:27.827Z,99503.22
2022-12-09T03:45:01.286Z,99509.66
2022-12-09T03:47:32.768Z,99502.16
2022-12-09T03:50:00.577Z,99500.03
2022-12-09T03:52:31.255Z,99511.63
2022-12-09T03:55:09.434Z,99507.19
2022-12-09T03:57:42.017Z,99512.72
2022-12-09T04:00:10.924Z,99503.09
2022-12-09T04:02:41.886Z,99513.38
2022-12-09T04:05:09.579Z,99510.78
2022-12-09T04:07:37.631Z,99514.91
2022-12-09T04:10:06.206Z,99503.06
2022-12-09T04:12:34.512Z,99511.88
2022-12-09T04:15:02.061Z,99515.34
2022-12-09T04:17:29.860Z,99520.91
2022-12-09T04:19:58.023Z,99518.06
2022-12-09T04:22:25.717Z,99524.50
2022-12-09T04:24:53.610Z,99517.66
2022-12-09T04:27:21.189Z,99536.44
2022-12-09T04:29:48.757Z,99534.84
2022-12-09T04:32:16.667Z,99518.97
2022-12-09T04:34:44.182Z,99525.44
2022-12-09T04:37:13.157Z,99530.38
2022-12-09T04:39:41.937Z,99537.00
2022-12-09T04:42:09.636Z,99527.19
2022-12-09T04:44:37.202Z,99530.97
2022-12-09T04:47:05.010Z,99528.66
2022-12-09T04:49:32.405Z,99544.56
2022-12-09T04:52:00.171Z,99540.81
2022-12-09T04:54:27.628Z,99548.28
2022-12-09T04:56:55.699Z,99535.94
2022-12-09T04:59:23.117Z,99538.47
2022-12-09T05:01:50.945Z,99545.47
2022-12-09T05:04:18.810Z,99552.66
2022-12-09T05:06:46.535Z,99548.38
2022-12-09T05:09:14.462Z,99556.00
2022-12-09T05:11:42.251Z,99541.41
2022-12-09T05:14:09.669Z,99546.50
2022-12-09T05:16:37.935Z,99545.19
2022-12-09T05:19:05.526Z,99554.72
2022-12-09T05:21:33.516Z,99560.63
2022-12-09T05:24:05.062Z,99556.28
2022-12-09T05:26:32.849Z,99544.56
2022-12-09T05:29:00.276Z,99551.63
2022-12-09T05:31:28.342Z,99545.06
2022-12-09T05:33:56.239Z,99545.69
2022-12-09T05:36:25.808Z,99544.91
2022-12-09T05:38:55.391Z,99547.75
2022-12-09T05:41:24.372Z,99558.03
2022-12-09T05:43:52.643Z,99547.72
2022-12-09T05:46:21.469Z,99549.25
2022-12-09T05:48:49.952Z,99544.56
2022-12-09T05:51:26.562Z,99552.13
2022-12-09T05:53:55.055Z,99550.53
2022-12-09T05:56:24.566Z,99556.22
2022-12-09T05:58:53.406Z,99557.19
2022-12-09T06:01:21.452Z,99550.81
2022-12-09T06:03:51.206Z,99552.59
2022-12-09T06:06:21.659Z,99557.41
2022-12-09T06:08:54.333Z,99552.91
2022-12-09T06:11:23.092Z,99558.03
2022-12-09T06:13:51.927Z,99557.09
2022-12-09T06:16:21.921Z,99553.63
2022-12-09T06:18:50.495Z,99568.69
2022-12-09T06:21:20.908Z,99556.47
2022-12-09T06:23:50.627Z,99565.94
2022-12-09T06:26:21.671Z,99567.97
2022-12-09T06:28:49.541Z,99564.66
2022-12-09T06:31:18.145Z,99556.66
2022-12-09T06:33:54.633Z,99585.94
2022-12-09T06:36:24.992Z,99589.66
2022-12-09T06:38:52.723Z,99593.81
2022-12-09T06:41:20.647Z,99585.94
2022-12-09T06:43:48.261Z,99580.94
2022-12-09T06:46:18.731Z,99587.66
2022-12-09T06:48:47.522Z,99581.59
2022-12-09T06:51:17.761Z,99591.84
2022-12-09T06:53:46.209Z,99589.00
2022-12-09T06:56:15.122Z,99589.38
2022-12-09T06:58:43.882Z,99589.38
2022-12-09T07:01:20.284Z,99596.44
2022-12-09T07:03:51.433Z,99595.97
2022-12-09T07:06:32.811Z,99601.78
2022-12-09T07:09:03.255Z,99593.88
2022-12-09T07:11:31.450Z,99592.09
2022-12-09T07:13:59.656Z,99601.78
2022-12-09T07:16:28.548Z,99591.91
2022-12-09T07:18:56.582Z,99578.47
2022-12-09T07:21:24.953Z,99593.97
2022-12-09T07:23:52.791Z,99586.91
2022-12-09T07:26:21.409Z,99576.81
2022-12-09T07:28:50.568Z,99579.78
2022-12-09T07:31:25.280Z,99592.94
2022-12-09T07:33:54.600Z,99594.88
2022-12-09T07:36:27.950Z,99594.16
2022-12-09T07:39:03.997Z,99591.53
2022-12-09T07:41:32.392Z,99593.72
2022-12-09T07:43:59.874Z,99591.66
2022-12-09T07:46:27.865Z,99597.75
2022-12-09T07:48:57.326Z,99589.31
2022-12-09T07:51:25.974Z,99598.84
2022-12-09T07:53:54.191Z,99587.50
2022-12-09T07:56:24.024Z,99594.22
2022-12-09T07:58:54.119Z,99585.06
2022-12-09T08:01:25.984Z,99596.84
2022-12-09T08:03:54.801Z,99593.78
2022-12-09T08:06:25.956Z,99604.47
2022-12-09T08:08:53.913Z,99606.22
2022-12-09T08:11:24.514Z,99600.84
2022-12-09T08:13:53.225Z,99601.41
2022-12-09T08:16:23.295Z,99611.19
2022-12-09T08:18:52.599Z,99613.22
2022-12-09T08:21:26.939Z,99595.13
2022-12-09T08:24:00.503Z,99616.88
2022-12-09T08:26:31.454Z,99613.28
2022-12-09T08:28:59.862Z,99616.31
2022-12-09T08:31:28.587Z,99612.97
2022-12-09T08:33:57.032Z,99621.22
2022-12-09T08:36:27.336Z,99615.63
2022-12-09T08:38:56.243Z,99627.69
2022-12-09T08:41:38.046Z,99630.47
2022-12-09T08:44:15.230Z,99638.97
2022-12-09T08:46:46.445Z,99626.97
2022-12-09T08:49:19.254Z,99632.91
2022-12-09T08:51:49.493Z,99626.78
2022-12-09T08:54:17.291Z,99627.22
2022-12-09T08:56:50.800Z,99641.84
2022-12-09T08:59:18.777Z,99643.47
2022-12-09T09:01:47.421Z,99646.97
2022-12-09T09:04:18.464Z,99632.28
2022-12-09T09:06:50.271Z,99623.97
2022-12-09T09:09:19.733Z,99637.72
2022-12-09T09:11:48.258Z,99623.91
2022-12-09T09:14:16.517Z,99631.50
2022-12-09T09:16:45.410Z,99635.53
2022-12-09T09:19:17.418Z,99627.50
2022-12-09T09:21:45.202Z,99623.03
2022-12-09T09:24:16.781Z,99623.88
2022-12-09T09:26:44.985Z,99625.34
2022-12-09T09:29:14.442Z,99626.38
2022-12-09T09:31:43.009Z,99621.53
2022-12-09T09:34:11.491Z,99632.47
2022-12-09T09:36:40.585Z,99621.84
2022-12-09T09:39:08.428Z,99619.00
2022-12-09T09:42:05.958Z,99615.84
2022-12-09T09:44:45.517Z,99621.78
2022-12-09T09:47:44.055Z,99623.03
2022-12-09T09:50:32.803Z,99629.00
2022-12-09T09:53:10.324Z,99623.91
2022-12-09T09:55:50.432Z,99612.94
2022-12-09T09:58:27.117Z,99627.72
2022-12-09T10:01:16.480Z,99617.13
2022-12-09T10:04:07.539Z,99626.19
2022-12-09T10:06:50.909Z,99622.44
2022-12-09T10:09:25.662Z,99634.69
2022-12-09T10:12:10.953Z,99629.03
2022-12-09T10:14:51.413Z,99627.66
2022-12-09T10:17:25.062Z,99629.28
2022-12-09T10:19:58.569Z,99617.97
2022-12-09T10:22:30.637Z,99612.84
2022-12-09T10:25:00.151Z,99616.00
2022-12-09T10:27:43.374Z,99610.81
2022-12-09T10:30:14.099Z,99625.53
2022-12-09T10:32:42.292Z,99624.44
2022-12-09T10:35:22.535Z,99620.47
2022-12-09T10:37:54.999Z,99619.44
2022-12-09T10:40:47.389Z,99625.09
2022-12-09T10:43:35.304Z,99628.34
2022-12-09T10:46:23.183Z,99627.31
2022-12-09T10:48:51.334Z,99626.03
2022-12-09T10:51:32.023Z,99630.56
2022-12-09T10:54:33.616Z,99630.53
2022-12-09T10:57:17.069Z,99630.38
2022-12-09T11:00:08.299Z,99633.88
2022-12-09T11:02:36.619Z,99632.13
2022-12-09T11:05:28.703Z,99633.22
2022-12-09T11:07:58.629Z,99641.22
2022-12-09T11:10:29.447Z,99641.19
2022-12-09T11:13:05.294Z,99646.03
2022-12-09T11:15:39.730Z,99641.38
2022-12-09T11:18:21.352Z,99639.16
2022-12-09T11:21:00.909Z,99628.72
2022-12-09T11:23:29.896Z,99633.97
2022-12-09T11:26:24.547Z,99643.75
2022-12-09T11:29:24.832Z,99645.13
2022-12-09T11:31:52.483Z,99653.25
2022-12-09T11:34:26.258Z,99650.22
2022-12-09T11:36:57.845Z,99650.00
2022-12-09T11:39:35.512Z,99646.53
2022-12-09T11:42:19.847Z,99643.50
2022-12-09T11:45:00.768Z,99644.19
2022-12-09T11:47:44.854Z,99639.97
2022-12-09T11:50:32.399Z,99644.31
2022-12-09T11:53:12.292Z,99635.28
2022-12-09T11:55:45.228Z,99632.22
2022-12-09T11:58:18.644Z,99631.00
2022-12-09T12:00:51.777Z,99637.88
2022-12-09T12:03:24.824Z,99639.88
2022-12-09T12:05:55.281Z,99625.50
2022-12-09T12:08:43.713Z,99637.69
2022-12-09T12:11:16.414Z,99643.00
2022-12-09T12:13:49.963Z,99631.34
2022-12-09T12:16:39.518Z,99649.66
2022-12-09T12:19:33.520Z,99639.66
2022-12-09T12:22:28.958Z,99646.34
2022-12-09T12:25:17.084Z,99622.88
2022-12-09T12:28:04.069Z,99646.19
2022-12-09T12:30:54.653Z,99646.56
2022-12-09T12:34:16.227Z,99646.69
2022-12-09T12:36:52.583Z,99646.09
2022-12-09T12:39:35.290Z,99635.28
2022-12-09T12:42:20.924Z,99645.88
2022-12-09T12:45:28.528Z,99640.88
2022-12-09T12:48:23.467Z,99642.59
2022-12-09T12:51:42.903Z,99641.81
2022-12-09T12:54:37.552Z,99646.28
2022-12-09T12:57:23.742Z,99637.84
2022-12-09T13:00:16.334Z,99645.88
2022-12-09T13:03:09.032Z,99644.69
2022-12-09T13:05:41.563Z,99646.47
2022-12-09T13:08:17.883Z,99648.81
2022-12-09T13:10:57.262Z,99644.75
2022-12-09T13:13:36.648Z,99638.19
2022-12-09T13:16:35.218Z,99643.47
2022-12-09T13:19:26.794Z,99650.03
2022-12-09T13:21:54.682Z,99643.09
2022-12-09T13:24:47.690Z,99651.88
2022-12-09T13:27:24.535Z,99654.16
2022-12-09T13:29:57.656Z,99650.28
2022-12-09T13:32:52.559Z,99648.22
2022-12-09T13:35:23.587Z,99639.06
2022-12-09T13:37:52.483Z,99638.63
2022-12-09T13:40:36.897Z,99648.25
2022-12-09T13:43:06.602Z,99657.25
2022-12-09T13:45:43.476Z,99664.38
2022-12-09T13:48:16.476Z,99659.63
2022-12-09T13:51:00.196Z,99655.97
2022-12-09T13:53:36.740Z,99656.75
2022-12-09T13:56:09.787Z,99662.69
2022-12-09T13:58:55.277Z,99660.31
2022-12-09T14:01:52.871Z,99662.69
2022-12-09T14:04:30.410Z,99667.88
2022-12-09T14:07:21.802Z,99663.38
2022-12-09T14:09:56.614Z,99664.56
2022-12-09T14:12:26.884Z,99669.31
2022-12-09T14:14:56.353Z,99676.22
2022-12-09T14:17:23.956Z,99669.06
2022-12-09T14:19:51.243Z,99673.66
2022-12-09T14:22:19.711Z,99671.03
2022-12-09T14:24:55.027Z,99670.72
2022-12-09T14:27:31.043Z,99670.69
2022-12-09T14:30:04.056Z,99668.44
2022-12-09T14:32:52.287Z,99664.63
2022-12-09T14:35:44.214Z,99665.88
2022-12-09T14:38:11.571Z,99667.31
2022-12-09T14:40:53.416Z,99667.38
2022-12-09T14:43:23.876Z,99660.22
2022-12-09T14:46:00.897Z,99650.72
2022-12-09T14:48:35.743Z,99662.78
2022-12-09T14:51:13.019Z,99665.19
2022-12-09T14:53:40.740Z,99668.41
2022-12-09T14:56:08.712Z,99656.84
2022-12-09T14:58:36.352Z,99664.66
2022-12-09T15:01:06.595Z,99657.59
2022-12-09T15:03:43.111Z,99656.59
2022-12-09T15:06:17.071Z,99643.25
2022-12-09T15:08:45.197Z,99655.00
2022-12-09T15:11:16.965Z,99654.31
2022-12-09T15:13:48.106Z,99655.41
2022-12-09T15:16:19.724Z,99653.34
2022-12-09T15:18:48.142Z,99656.75
2022-12-09T15:21:30.622Z,99649.78
2022-12-09T15:24:00.837Z,99644.19
2022-12-09T15:26:32.893Z,99638.16
2022-12-09T15:29:01.440Z,99634.91
2022-12-09T15:31:30.671Z,99634.16
2022-12-09T15:34:07.754Z,99635.22
2022-12-09T15:36:44.224Z,99636.31
2022-12-09T15:39:23.683Z,99629.19
2022-12-09T15:42:08.129Z,99630.81
2022-12-09T15:44:49.199Z,99628.09
2022-12-09T15:47:26.080Z,99630.97
2022-12-09T15:50:11.329Z,99613.84
2022-12-09T15:52:45.724Z,99622.53
2022-12-09T15:55:18.052Z,99631.72
2022-12-09T15:57:46.407Z,99633.75
2022-12-09T16:00:14.625Z,99636.13
2022-12-09T16:02:45.467Z,99631.50
2022-12-09T16:05:13.375Z,99615.94
2022-12-09T16:07:56.207Z,99632.59
2022-12-09T16:10:27.066Z,99627.34
2022-12-09T16:13:06.917Z,99633.16
2022-12-09T16:15:55.915Z,99624.13
2022-12-09T16:18:26.950Z,99636.03
2022-12-09T16:21:16.265Z,99626.09
2022-12-09T16:23:47.163Z,99622.94
2022-12-09T16:26:23.592Z,99629.59
2022-12-09T16:29:03.109Z,99632.47
2022-12-09T16:31:31.065Z,99635.94
2022-12-09T16:33:58.564Z,99637.13
2022-12-09T16:36:31.944Z,99637.00
2022-12-09T16:39:08.430Z,99630.75
2022-12-09T16:41:51.212Z,99627.16
2022-12-09T16:44:21.133Z,99626.25
2022-12-09T16:46:48.895Z,99631.94
2022-12-09T16:49:16.125Z,99624.97
2022-12-09T16:51:44.081Z,99634.81
2022-12-09T16:54:20.279Z,99640.69
2022-12-09T16:56:49.010Z,99630.38
2022-12-09T16:59:16.324Z,99633.81
2022-12-09T17:01:44.222Z,99637.66
2022-12-09T17:04:19.418Z,99636.63
2022-12-09T17:06:47.069Z,99631.19
2022-12-09T17:09:14.584Z,99642.59
2022-12-09T17:11:48.359Z,99633.16
2022-12-09T17:14:17.095Z,99629.91
2022-12-09T17:16:44.887Z,99637.50
2022-12-09T17:19:13.204Z,99643.78
2022-12-09T17:21:40.745Z,99637.25
2022-12-09T17:24:10.052Z,99627.81
2022-12-09T17:26:37.712Z,99632.75
2022-12-09T17:29:07.194Z,99631.81
2022-12-09T17:31:35.030Z,99621.84
2022-12-09T17:34:02.308Z,99635.13
2022-12-09T17:36:29.925Z,99629.50
2022-12-09T17:39:01.987Z,99629.69
2022-12-09T17:41:29.773Z,99638.69
2022-12-09T17:43:57.944Z,99626.00
2022-12-09T17:46:25.590Z,99640.72
2022-12-09T17:48:52.879Z,99649.56
2022-12-09T17:51:20.770Z,99641.91
2022-12-09T17:53:48.538Z,99646.31
2022-12-09T17:56:21.972Z,99652.09
2022-12-09T17:58:56.904Z,99634.28
2022-12-09T18:01:25.086Z,99654.97
2022-12-09T18:03:59.236Z,99653.09
2022-12-09T18:06:31.784Z,99652.25
2022-12-09T18:08:58.993Z,99655.00
2022-12-09T18:11:27.081Z,99653.19
2022-12-09T18:13:54.433Z,99643.84
2022-12-09T18:16:22.062Z,99649.03
2022-12-09T18:18:49.473Z,99656.88
2022-12-09T18:21:19.813Z,99657.72
2022-12-09T18:23:48.395Z,99661.38
2022-12-09T18:26:18.495Z,99660.81
2022-12-09T18:28:45.748Z,99657.31
2022-12-09T18:31:16.422Z,99660.38
2022-12-09T18:33:43.751Z,99646.59
2022-12-09T18:36:14.019Z,99656.38
2022-12-09T18:38:42.244Z,99648.03
2022-12-09T18:41:19.898Z,99650.09
2022-12-09T18:43:49.504Z,99650.44
2022-12-09T18:46:24.987Z,99647.72
2022-12-09T18:49:07.839Z,99648.91
2022-12-09T18:51:35.675Z,99643.44
2022-12-09T18:54:04.115Z,99657.75
2022-12-09T18:56:32.332Z,99649.09
2022-12-09T18:59:08.581Z,99648.22
2022-12-09T19:01:41.020Z,99649.91
2022-12-09T19:04:13.592Z,99642.25
2022-12-09T19:06:43.933Z,99656.63
2022-12-09T19:09:15.150Z,99641.84
2022-12-09T19:11:44.119Z,99648.16
2022-12-09T19:14:11.803Z,99654.94
2022-12-09T19:16:39.455Z,99650.44
2022-12-09T19:19:10.398Z,99648.16
2022-12-09T19:21:39.441Z,99650.28
2022-12-09T19:24:07.862Z,99661.06
2022-12-09T19:26:36.600Z,99654.50
2022-12-09T19:29:06.853Z,99658.78
2022-12-09T19:31:40.962Z,99657.41
2022-12-09T19:34:17.576Z,99665.50
2022-12-09T19:36:46.513Z,99658.78
2022-12-09T19:39:15.094Z,99670.72
2022-12-09T19:41:43.542Z,99661.50
2022-12-09T19:44:15.343Z,99662.25
2022-12-09T19:46:43.996Z,99671.91
2022-12-09T19:49:16.385Z,99674.63
2022-12-09T19:51:44.486Z,99670.28
2022-12-09T19:54:11.735Z,99671.16
2022-12-09T19:56:40.085Z,99675.81
2022-12-09T19:59:07.613Z,99664.31
2022-12-09T20:01:38.426Z,99673.34
2022-12-09T20:04:47.603Z,99650.56
2022-12-09T20:07:08.315Z,99661.88
2022-12-09T20:09:36.974Z,99669.94
2022-12-09T20:12:05.149Z,99663.13
2022-12-09T20:14:32.433Z,99666.69
2022-12-09T20:17:00.040Z,99658.16
2022-12-09T20:19:27.924Z,99663.63
2022-12-09T20:21:55.656Z,99652.63
2022-12-09T20:24:23.191Z,99661.41
2022-12-09T20:26:50.830Z,99664.66
2022-12-09T20:29:18.097Z,99662.38
2022-12-09T20:31:45.735Z,99659.72
2022-12-09T20:34:16.242Z,99655.78
2022-12-09T20:36:45.102Z,99664.75
2022-12-09T20:39:18.711Z,99654.56
2022-12-09T20:41:47.310Z,99658.56
2022-12-09T20:44:15.937Z,99661.59
2022-12-09T20:46:49.774Z,99655.03
2022-12-09T20:49:17.611Z,99668.22
2022-12-09T20:51:45.575Z,99666.69
2022-12-09T20:54:13.568Z,99650.59
2022-12-09T20:56:41.316Z,99669.72
2022-12-09T20:59:10.646Z,99661.38
2022-12-09T21:01:38.371Z,99657.13
2022-12-09T21:04:07.228Z,99658.44
2022-12-09T21:06:38.223Z,99660.66
2022-12-09T21:09:12.869Z,99664.03
2022-12-09T21:11:40.823Z,99665.66
2022-12-09T21:14:08.570Z,99673.56
2022-12-09T21:16:39.683Z,99664.34
2022-12-09T21:19:10.454Z,99671.72
2022-12-09T21:21:40.534Z,99678.19
2022-12-09T21:24:09.535Z,99673.09
2022-12-09T21:26:37.607Z,99665.66
2022-12-09T21:29:04.814Z,99669.50
2022-12-09T21:31:35.742Z,99686.97
2022-12-09T21:34:06.347Z,99677.50
2022-12-09T21:36:37.025Z,99682.09
2022-12-09T21:39:06.537Z,99678.38
2022-12-09T21:41:36.597Z,99677.41
2022-12-09T21:44:05.121Z,99679.91
2022-12-09T21:46:37.829Z,99682.53
2022-12-09T21:49:06.661Z,99684.53
2022-12-09T21:51:35.025Z,99679.69
2022-12-09T21:54:02.612Z,99677.41
2022-12-09T21:56:32.828Z,99680.22
2022-12-09T21:59:00.877Z,99683.53
2022-12-09T22:01:35.022Z,99671.66
2022-12-09T22:04:04.157Z,99676.81
2022-12-09T22:06:32.397Z,99673.53
2022-12-09T22:09:00.686Z,99671.03
2022-12-09T22:11:31.303Z,99669.88
2022-12-09T22:14:00.273Z,99668.97
2022-12-09T22:16:31.055Z,99670.78
2022-12-09T22:18:59.874Z,99674.75
2022-12-09T22:21:30.153Z,99667.81
2022-12-09T22:24:01.197Z,99680.59
2022-12-09T22:26:29.297Z,99667.31
2022-12-09T22:28:59.548Z,99678.84
2022-12-09T22:31:30.362Z,99670.16
2022-12-09T22:34:01.387Z,99671.94
2022-12-09T22:36:29.412Z,99663.34
2022-12-09T22:38:56.790Z,99665.59
2022-12-09T22:41:26.607Z,99664.47
2022-12-09T22:43:55.019Z,99664.88
2022-12-09T22:46:28.412Z,99662.31
2022-12-09T22:48:57.705Z,99667.44
2022-12-09T22:51:28.839Z,99659.47
2022-12-09T22:53:57.459Z,99662.38
2022-12-09T22:56:25.897Z,99663.63
2022-12-09T22:58:53.471Z,99662.09
2022-12-09T23:01:24.964Z,99657.94
2022-12-09T23:03:53.697Z,99663.78
2022-12-09T23:06:21.482Z,99654.97
2022-12-09T23:08:49.230Z,99657.63
2022-12-09T23:11:19.507Z,99661.63
2022-12-09T23:13:47.432Z,99656.66
2022-12-09T23:16:20.434Z,99669.69
2022-12-09T23:18:48.347Z,99672.47
2022-12-09T23:21:20.547Z,99671.00
2022-12-09T23:23:47.807Z,99678.97
2022-12-09T23:26:19.074Z,99676.53
2022-12-09T23:28:49.375Z,99678.06
2022-12-09T23:31:18.797Z,99661.69
2022-12-09T23:33:47.578Z,99661.91
2022-12-09T23:36:33.765Z,99672.59
2022-12-09T23:39:02.989Z,99656.00
2022-12-09T23:41:31.355Z,99671.97
2022-12-09T23:43:58.664Z,99675.81
2022-12-09T23:46:27.883Z,99670.75
2022-12-09T23:48:56.242Z,99671.50
2022-12-09T23:51:26.702Z,99671.50
2022-12-09T23:53:59.436Z,99656.03
2022-12-09T23:56:29.512Z,99662.22
2022-12-09T23:59:03.475Z,99661.53
